createdAt,value
2023-02-08T00:02:22.624Z,81.70
2023-02-08T00:05:24.555Z,83.80
2023-02-08T00:11:27.813Z,85.40
2023-02-08T00:14:29.440Z,93.00
2023-02-08T00:17:31.119Z,93.10
2023-02-08T00:20:32.630Z,98.10
2023-02-08T00:23:34.213Z,101.80
2023-02-08T00:26:35.861Z,103.40
2023-02-08T00:29:37.465Z,102.00
2023-02-08T00:35:40.869Z,101.40
2023-02-08T00:38:42.580Z,101.20
2023-02-08T00:41:44.685Z,101.30
2023-02-08T00:44:46.436Z,99.50
2023-02-08T00:47:48.013Z,100.00
2023-02-08T00:50:59.711Z,99.30
2023-02-08T00:54:01.331Z,102.40
2023-02-08T00:57:03.112Z,105.60
2023-02-08T01:00:06.380Z,106.80
2023-02-08T01:03:07.931Z,101.90
2023-02-08T01:06:13.957Z,102.40
2023-02-08T01:09:15.634Z,108.00
2023-02-08T01:15:19.204Z,107.50
2023-02-08T01:18:21.163Z,107.70
2023-02-08T01:21:31.900Z,108.00
2023-02-08T01:24:33.842Z,106.10
2023-02-08T01:27:35.441Z,109.90
2023-02-08T01:30:37.064Z,109.70
2023-02-08T01:33:39.416Z,108.70
2023-02-08T01:39:42.575Z,110.30
2023-02-08T01:42:44.308Z,105.00
2023-02-08T01:45:45.959Z,110.00
2023-02-08T01:48:47.640Z,112.80
2023-02-08T01:51:58.475Z,109.60
2023-02-08T01:55:09.623Z,114.40
2023-02-08T01:58:12.193Z,110.80
2023-02-08T02:01:14.016Z,112.10
2023-02-08T02:04:16.099Z,104.40
2023-02-08T02:07:19.237Z,103.40
2023-02-08T02:10:33.924Z,106.90
2023-02-08T02:13:37.246Z,105.90
2023-02-08T02:16:39.576Z,107.20
2023-02-08T02:20:04.465Z,106.10
2023-02-08T02:23:33.328Z,100.60
2023-02-08T02:27:07.306Z,106.00
2023-02-08T02:30:09.012Z,110.40
2023-02-08T02:33:31.943Z,109.90
2023-02-08T02:36:59.764Z,110.70
2023-02-08T02:40:27.090Z,111.50
2023-02-08T02:43:54.770Z,111.30
2023-02-08T02:47:12.029Z,109.90
2023-02-08T02:50:27.848Z,106.30
2023-02-08T02:53:39.502Z,100.90
2023-02-08T02:56:53.821Z,105.20
2023-02-08T02:59:55.657Z,104.70
2023-02-08T03:06:03.600Z,97.40
2023-02-08T03:09:07.969Z,93.70
2023-02-08T03:12:28.389Z,93.40
2023-02-08T03:15:54.583Z,92.30
2023-02-08T03:19:14.999Z,90.60
2023-02-08T03:22:43.703Z,92.70
2023-02-08T03:25:50.067Z,90.80
2023-02-08T03:29:05.451Z,94.20
2023-02-08T03:32:09.806Z,97.20
2023-02-08T03:35:15.096Z,95.50
2023-02-08T03:38:22.943Z,98.40
2023-02-08T03:41:39.072Z,102.20
2023-02-08T03:44:55.086Z,100.60
2023-02-08T03:47:58.095Z,104.80
2023-02-08T03:51:02.163Z,101.70
2023-02-08T03:54:08.595Z,99.80
2023-02-08T03:57:23.249Z,99.60
2023-02-08T04:00:25.348Z,98.20
2023-02-08T04:03:28.855Z,101.90
2023-02-08T04:06:30.886Z,101.70
2023-02-08T04:09:32.479Z,98.60
2023-02-08T04:12:34.094Z,93.80
2023-02-08T04:15:35.794Z,98.10
2023-02-08T04:18:37.530Z,105.40
2023-02-08T04:21:39.079Z,104.20
2023-02-08T04:24:40.612Z,112.10
2023-02-08T04:27:42.266Z,119.40
2023-02-08T04:30:44.072Z,98.10
2023-02-08T04:33:46.343Z,88.50
2023-02-08T04:36:48.020Z,86.10
2023-02-08T04:39:49.589Z,86.60
2023-02-08T04:42:51.238Z,90.00
2023-02-08T04:45:52.920Z,98.30
2023-02-08T04:48:54.507Z,100.30
2023-02-08T04:51:56.154Z,90.20
2023-02-08T04:54:57.767Z,96.50
2023-02-08T04:57:59.383Z,105.20
2023-02-08T05:01:01.104Z,109.40
2023-02-08T05:04:02.796Z,105.70
2023-02-08T05:07:05.180Z,100.20
2023-02-08T05:10:07.154Z,99.70
2023-02-08T05:13:08.786Z,96.00
2023-02-08T05:16:10.534Z,93.90
2023-02-08T05:19:12.263Z,96.30
2023-02-08T05:25:15.413Z,99.40
2023-02-08T05:28:17.202Z,101.50
2023-02-08T05:34:21.958Z,98.60
2023-02-08T05:37:23.522Z,104.70
2023-02-08T05:40:25.323Z,115.90
2023-02-08T05:43:26.933Z,106.70
2023-02-08T05:46:28.630Z,101.50
2023-02-08T05:49:30.235Z,95.70
2023-02-08T05:52:32.017Z,107.40
2023-02-08T05:58:35.317Z,87.50
2023-02-08T06:01:37.339Z,89.00
2023-02-08T06:04:39.272Z,86.50
2023-02-08T06:07:40.949Z,84.70
2023-02-08T06:10:42.819Z,83.30
2023-02-08T06:13:45.119Z,86.50
2023-02-08T06:16:46.789Z,85.70
2023-02-08T06:19:48.534Z,87.70
2023-02-08T06:22:50.333Z,88.00
2023-02-08T06:28:53.564Z,99.40
2023-02-08T06:31:55.138Z,99.60
2023-02-08T06:37:58.645Z,93.40
2023-02-08T06:41:00.628Z,95.70
2023-02-08T06:44:02.368Z,98.70
2023-02-08T06:50:07.026Z,91.60
2023-02-08T06:53:08.902Z,90.40
2023-02-08T06:59:12.056Z,70.70
2023-02-08T07:05:16.356Z,66.80
2023-02-08T07:08:17.919Z,69.10
2023-02-08T07:11:20.832Z,60.30
2023-02-08T07:14:22.495Z,65.50
2023-02-08T07:17:24.162Z,60.70
2023-02-08T07:20:25.745Z,65.30
2023-02-08T07:23:27.840Z,62.60
2023-02-08T07:26:29.601Z,59.80
2023-02-08T07:29:32.238Z,53.80
2023-02-08T07:32:34.934Z,55.30
2023-02-08T07:35:36.480Z,55.30
2023-02-08T07:38:38.331Z,55.30
2023-02-08T07:44:41.354Z,51.00
2023-02-08T07:47:43.103Z,43.90
2023-02-08T07:50:44.661Z,41.10
2023-02-08T07:53:46.400Z,43.40
2023-02-08T07:56:47.960Z,45.00
2023-02-08T07:59:49.613Z,44.60
2023-02-08T08:02:51.283Z,47.00
2023-02-08T08:08:57.109Z,50.00
2023-02-08T08:15:00.635Z,50.80
2023-02-08T08:18:02.363Z,46.60
2023-02-08T08:21:04.514Z,45.60
2023-02-08T08:24:06.358Z,43.50
2023-02-08T08:30:13.540Z,45.40
2023-02-08T08:33:15.240Z,39.90
2023-02-08T08:36:16.829Z,40.60
2023-02-08T08:39:18.523Z,39.10
2023-02-08T08:42:20.382Z,38.40
2023-02-08T08:45:22.064Z,38.00
2023-02-08T08:48:23.671Z,39.50
2023-02-08T08:51:25.247Z,37.20
2023-02-08T08:54:26.854Z,37.90
2023-02-08T08:57:28.743Z,36.40
2023-02-08T09:00:30.284Z,33.50
2023-02-08T09:06:33.915Z,35.60
2023-02-08T09:09:35.874Z,35.80
2023-02-08T09:12:37.473Z,35.60
2023-02-08T09:15:40.816Z,31.70
2023-02-08T09:18:42.861Z,29.30
2023-02-08T09:21:44.666Z,29.40
2023-02-08T09:24:46.271Z,30.00
2023-02-08T09:27:48.034Z,27.40
2023-02-08T09:33:52.599Z,29.30
2023-02-08T09:36:54.166Z,26.30
2023-02-08T09:39:56.185Z,26.60
2023-02-08T09:43:08.390Z,26.80
2023-02-08T09:46:26.549Z,26.00
2023-02-08T09:49:53.704Z,26.10
2023-02-08T09:53:18.168Z,25.70
2023-02-08T09:56:26.449Z,27.60
2023-02-08T09:59:30.221Z,25.00
2023-02-08T10:02:34.517Z,24.70
2023-02-08T10:05:36.275Z,24.90
2023-02-08T10:11:44.059Z,26.20
2023-02-08T10:15:02.286Z,23.40
2023-02-08T10:18:19.263Z,26.30
2023-02-08T10:22:04.505Z,23.70
2023-02-08T10:25:17.101Z,23.20
2023-02-08T10:28:26.632Z,21.00
2023-02-08T10:32:05.448Z,15.90
2023-02-08T10:35:26.280Z,11.60
2023-02-08T10:38:45.388Z,14.00
2023-02-08T10:41:47.946Z,16.40
2023-02-08T10:45:24.227Z,15.80
2023-02-08T10:49:00.447Z,15.50
2023-02-08T10:52:02.063Z,16.00
2023-02-08T10:55:12.989Z,17.60
2023-02-08T10:58:20.526Z,17.90
2023-02-08T11:01:22.407Z,18.30
2023-02-08T11:04:24.343Z,21.40
2023-02-08T11:07:26.014Z,24.00
2023-02-08T11:10:27.919Z,24.20
2023-02-08T11:13:49.745Z,21.90
2023-02-08T11:16:53.074Z,20.20
2023-02-08T11:19:56.235Z,20.50
2023-02-08T11:22:59.050Z,19.60
2023-02-08T11:26:38.664Z,19.80
2023-02-08T11:29:40.282Z,19.10
2023-02-08T11:35:53.334Z,18.10
2023-02-08T11:38:55.672Z,18.50
2023-02-08T11:42:00.183Z,18.00
2023-02-08T11:45:02.254Z,16.90
2023-02-08T11:48:04.536Z,16.60
2023-02-08T11:51:06.640Z,17.00
2023-02-08T11:54:32.110Z,17.60
2023-02-08T11:57:33.795Z,19.10
2023-02-08T12:03:40.157Z,16.60
2023-02-08T12:07:11.462Z,14.70
2023-02-08T12:10:15.691Z,14.70
2023-02-08T12:13:29.580Z,14.70
2023-02-08T12:16:43.572Z,15.10
2023-02-08T12:20:36.860Z,17.00
2023-02-08T12:24:13.724Z,16.30
2023-02-08T12:27:31.536Z,15.90
2023-02-08T12:30:38.962Z,16.50
2023-02-08T12:34:22.725Z,14.80
2023-02-08T12:37:27.802Z,15.40
2023-02-08T12:41:07.349Z,16.20
2023-02-08T12:44:15.548Z,14.80
2023-02-08T12:47:58.207Z,17.20
2023-02-08T12:51:26.088Z,16.30
2023-02-08T12:54:50.862Z,15.20
2023-02-08T12:58:14.380Z,14.50
2023-02-08T13:01:20.853Z,16.20
2023-02-08T13:04:43.885Z,17.30
2023-02-08T13:07:46.704Z,13.30
2023-02-08T13:10:53.176Z,14.60
2023-02-08T13:14:04.983Z,14.70
2023-02-08T13:20:41.982Z,13.60
2023-02-08T13:23:52.345Z,13.60
2023-02-08T13:26:54.943Z,12.60
2023-02-08T13:32:58.716Z,13.30
2023-02-08T13:36:00.753Z,12.10
2023-02-08T13:39:05.225Z,12.80
2023-02-08T13:42:18.299Z,13.20
2023-02-08T13:45:30.087Z,12.10
2023-02-08T13:51:52.490Z,12.20
2023-02-08T13:55:29.384Z,11.30
2023-02-08T13:58:49.561Z,11.80
2023-02-08T14:02:17.293Z,12.10
2023-02-08T14:05:47.304Z,12.80
2023-02-08T14:09:00.701Z,12.00
2023-02-08T14:12:16.264Z,10.90
2023-02-08T14:15:17.883Z,12.40
2023-02-08T14:18:26.432Z,12.00
2023-02-08T14:21:40.965Z,16.10
2023-02-08T14:25:07.145Z,25.90
2023-02-08T14:28:24.127Z,18.50
2023-02-08T14:31:45.220Z,15.60
2023-02-08T14:34:47.074Z,14.50
2023-02-08T14:40:55.909Z,12.40
2023-02-08T14:43:57.546Z,12.60
2023-02-08T14:46:59.160Z,13.20
2023-02-08T14:53:34.513Z,14.00
2023-02-08T14:56:47.015Z,14.50
2023-02-08T14:59:49.201Z,17.80
2023-02-08T15:02:51.276Z,12.50
2023-02-08T15:06:37.720Z,15.20
2023-02-08T15:09:41.184Z,12.80
2023-02-08T15:12:53.400Z,13.60
2023-02-08T15:15:56.561Z,15.80
2023-02-08T15:18:58.321Z,18.20
2023-02-08T15:25:36.374Z,38.20
2023-02-08T15:28:44.457Z,35.30
2023-02-08T15:31:46.602Z,19.90
2023-02-08T15:34:53.809Z,15.90
2023-02-08T15:37:55.902Z,15.30
2023-02-08T15:41:05.194Z,17.30
2023-02-08T15:44:26.262Z,18.10
2023-02-08T15:47:35.249Z,26.30
2023-02-08T15:50:37.236Z,24.90
2023-02-08T15:53:41.885Z,24.60
2023-02-08T15:56:55.478Z,28.00
2023-02-08T15:59:57.469Z,38.70
2023-02-08T16:03:02.110Z,35.60
2023-02-08T16:06:06.002Z,29.40
2023-02-08T16:09:07.708Z,42.70
2023-02-08T16:12:20.124Z,55.40
2023-02-08T16:15:40.360Z,56.90
2023-02-08T16:18:47.164Z,34.70
2023-02-08T16:21:48.901Z,41.00
2023-02-08T16:27:52.120Z,42.00
2023-02-08T16:30:55.941Z,41.80
2023-02-08T16:34:15.958Z,44.40
2023-02-08T16:37:28.754Z,45.30
2023-02-08T16:40:42.140Z,73.00
2023-02-08T16:43:44.172Z,95.20
2023-02-08T16:49:50.113Z,66.20
2023-02-08T16:52:59.680Z,58.50
2023-02-08T16:56:01.342Z,56.30
2023-02-08T16:59:03.257Z,60.40
2023-02-08T17:02:11.077Z,57.20
2023-02-08T17:05:12.817Z,50.30
2023-02-08T17:08:20.056Z,47.10
2023-02-08T17:11:21.734Z,50.40
2023-02-08T17:14:23.421Z,44.10
2023-02-08T17:17:25.112Z,44.70
2023-02-08T17:20:29.945Z,42.20
2023-02-08T17:23:31.823Z,43.50
2023-02-08T17:26:41.724Z,43.70
2023-02-08T17:29:43.304Z,49.20
2023-02-08T17:32:44.809Z,49.00
2023-02-08T17:35:48.584Z,52.30
2023-02-08T17:38:50.115Z,45.50
2023-02-08T17:41:51.735Z,43.60
2023-02-08T17:44:53.358Z,41.90
2023-02-08T17:47:56.257Z,38.20
2023-02-08T17:50:57.849Z,42.50
2023-02-08T17:53:59.620Z,41.30
2023-02-08T17:57:01.322Z,46.20
2023-02-08T18:00:06.233Z,84.60
2023-02-08T18:03:08.199Z,70.50
2023-02-08T18:06:10.792Z,59.10
2023-02-08T18:09:12.541Z,51.60
2023-02-08T18:12:14.267Z,46.40
2023-02-08T18:15:18.608Z,47.40
2023-02-08T18:18:20.202Z,42.00
2023-02-08T18:21:23.109Z,46.20
2023-02-08T18:24:24.762Z,48.90
2023-02-08T18:27:26.410Z,45.40
2023-02-08T18:30:28.167Z,46.30
2023-02-08T18:33:29.923Z,52.00
2023-02-08T18:36:31.554Z,66.20
2023-02-08T18:39:33.265Z,75.20
2023-02-08T18:42:36.259Z,67.30
2023-02-08T18:45:38.104Z,60.10
2023-02-08T18:48:40.385Z,61.50
2023-02-08T18:51:43.747Z,62.20
2023-02-08T18:54:45.453Z,65.00
2023-02-08T18:57:47.832Z,65.60
2023-02-08T19:00:50.193Z,66.30
2023-02-08T19:03:52.188Z,58.50
2023-02-08T19:06:53.766Z,58.00
2023-02-08T19:09:55.622Z,55.30
2023-02-08T19:12:57.149Z,62.50
2023-02-08T19:15:58.911Z,64.10
2023-02-08T19:19:01.400Z,59.10
2023-02-08T19:22:02.969Z,60.70
2023-02-08T19:25:04.847Z,52.40
2023-02-08T19:31:11.319Z,55.60
2023-02-08T19:34:13.407Z,55.30
2023-02-08T19:37:15.281Z,79.00
2023-02-08T19:46:23.205Z,57.90
2023-02-08T19:49:24.874Z,58.40
2023-02-08T19:52:26.501Z,71.70
2023-02-08T19:55:28.092Z,73.30
2023-02-08T19:58:31.060Z,65.60
2023-02-08T20:01:34.211Z,57.10
2023-02-08T20:04:35.836Z,49.70
2023-02-08T20:07:37.394Z,47.30
2023-02-08T20:10:43.879Z,48.70
2023-02-08T20:13:45.903Z,37.40
2023-02-08T20:16:47.607Z,39.60
2023-02-08T20:19:49.241Z,43.00
2023-02-08T20:22:51.126Z,46.90
2023-02-08T20:29:04.302Z,48.80
2023-02-08T20:32:06.245Z,52.10
2023-02-08T20:38:09.637Z,50.10
2023-02-08T20:41:13.727Z,52.90
2023-02-08T20:44:17.749Z,54.30
2023-02-08T20:47:19.720Z,52.80
2023-02-08T20:50:21.283Z,53.70
2023-02-08T20:53:22.929Z,51.90
2023-02-08T20:56:29.597Z,55.20
2023-02-08T20:59:31.532Z,61.70
2023-02-08T21:05:34.796Z,47.60
2023-02-08T21:08:36.415Z,71.30
2023-02-08T21:11:38.517Z,74.60
2023-02-08T21:14:40.170Z,72.10
2023-02-08T21:17:42.103Z,65.90
2023-02-08T21:20:44.059Z,67.20
2023-02-08T21:23:46.584Z,61.60
2023-02-08T21:26:48.233Z,58.00
2023-02-08T21:29:51.327Z,62.80
2023-02-08T21:32:52.980Z,63.90
2023-02-08T21:35:54.859Z,70.70
2023-02-08T21:42:00.918Z,66.10
2023-02-08T21:45:02.707Z,70.70
2023-02-08T21:48:04.775Z,73.30
2023-02-08T21:51:06.475Z,70.30
2023-02-08T21:54:12.655Z,66.90
2023-02-08T21:57:23.712Z,73.20
2023-02-08T22:00:25.324Z,73.20
2023-02-08T22:03:27.007Z,82.80
2023-02-08T22:06:28.598Z,62.10
2023-02-08T22:09:30.452Z,53.90
2023-02-08T22:12:31.980Z,54.70
2023-02-08T22:15:33.509Z,73.60
2023-02-08T22:18:35.098Z,71.30
2023-02-08T22:21:36.636Z,67.60
2023-02-08T22:24:38.358Z,65.60
2023-02-08T22:27:39.880Z,62.20
2023-02-08T22:30:41.452Z,63.50
2023-02-08T22:33:43.131Z,65.20
2023-02-08T22:36:44.696Z,64.00
2023-02-08T22:39:46.305Z,68.70
2023-02-08T22:42:47.947Z,64.10
2023-02-08T22:45:59.686Z,74.40
2023-02-08T22:49:01.308Z,80.50
2023-02-08T22:52:04.153Z,82.90
2023-02-08T22:55:06.245Z,85.00
2023-02-08T22:58:07.838Z,85.00
2023-02-08T23:01:15.192Z,79.10
2023-02-08T23:04:16.838Z,78.40
2023-02-08T23:07:18.594Z,78.40
2023-02-08T23:10:20.225Z,77.30
2023-02-08T23:13:21.777Z,74.40
2023-02-08T23:16:23.539Z,83.20
2023-02-08T23:19:25.157Z,70.60
2023-02-08T23:22:26.822Z,86.10
2023-02-08T23:25:28.523Z,66.10
2023-02-08T23:28:30.136Z,67.90
2023-02-08T23:34:34.764Z,79.00
2023-02-08T23:37:36.609Z,74.00
2023-02-08T23:40:40.316Z,77.10
2023-02-08T23:43:42.717Z,82.20
2023-02-08T23:46:44.314Z,77.50
2023-02-08T23:49:46.037Z,74.80
2023-02-08T23:52:47.643Z,77.30
2023-02-08T23:55:49.172Z,66.50
2023-02-08T23:58:53.322Z,74.60
